Archival Weather

Chicago O'Hare International

Chicago, Illinois (KORD)

Report from: Thursday, March 21, 2024 2:51 PM CDT
Current time: Tuesday, May 21, 2024 11:02 AM CDT

Current weather – Weather history – Daily summaries
Weather forecast

Temperature4.4°C (39.9°F)
Wind chill2.6°C (36.7°F)
Dew point-8.3°C (17.1°F)
Winds 4 kts (2.1 m/s, 4.6 mph) East (100°)
Visibility10 mi. (16.1 km)
Clouds Few clouds 5,000 ft. (1,524 m)
Ceiling: Broken clouds 10,000 ft. (3,048 m)
Altimeter30.26 in.Hg (1025 mB)
Relative humidity39 %
Density altitude-1,632 ft. (-497 m)
Sea-level pressure102.5 kPa (1025 mB, 30.27 in.Hg)
Remarks System requires maintenance
Automated weather observing station with precipitation discriminator
Flight conditions Visual Meteorological Conditions
Raw dataKORD 211951Z 10004KT 10SM FEW050 BKN100 04/M08 A3026 RMK AO2 SLP252 T00441083 $
An error has occurred. This application may no longer respond until reloaded. Reload 🗙